sensor_id;sensor_type;location;lat;lon;timestamp;pressure;altitude;pressure_sealevel;temperature;humidity
63731;BME280;49747;51.334;6.830;2023-01-26T00:01:18;102018.06;;;8.73;52.18
63731;BME280;49747;51.334;6.830;2023-01-26T00:03:45;102021.59;;;8.74;52.59
63731;BME280;49747;51.334;6.830;2023-01-26T00:06:14;102022.50;;;8.73;52.44
63731;BME280;49747;51.334;6.830;2023-01-26T00:08:43;102008.47;;;8.71;52.98
63731;BME280;49747;51.334;6.830;2023-01-26T00:11:11;102005.75;;;8.72;53.00
63731;BME280;49747;51.334;6.830;2023-01-26T00:13:38;102003.06;;;8.74;52.57
63731;BME280;49747;51.334;6.830;2023-01-26T00:16:09;101995.28;;;8.69;51.93
63731;BME280;49747;51.334;6.830;2023-01-26T00:18:37;102000.66;;;8.68;51.96
63731;BME280;49747;51.334;6.830;2023-01-26T00:21:04;101979.19;;;8.53;52.19
63731;BME280;49747;51.334;6.830;2023-01-26T00:23:32;101988.47;;;8.63;52.26
63731;BME280;49747;51.334;6.830;2023-01-26T00:25:59;101983.31;;;8.60;52.11
63731;BME280;49747;51.334;6.830;2023-01-26T00:28:27;101967.81;;;8.51;52.48
63731;BME280;49747;51.334;6.830;2023-01-26T00:31:04;101963.47;;;8.50;52.22
63731;BME280;49747;51.334;6.830;2023-01-26T00:33:31;101973.44;;;8.44;52.40
63731;BME280;49747;51.334;6.830;2023-01-26T00:35:57;101968.41;;;8.37;52.50
63731;BME280;49747;51.334;6.830;2023-01-26T00:38:25;101961.19;;;8.41;52.76
63731;BME280;49747;51.334;6.830;2023-01-26T00:40:51;101958.50;;;8.43;55.00
63731;BME280;49747;51.334;6.830;2023-01-26T00:43:19;101949.81;;;8.39;54.20
63731;BME280;49747;51.334;6.830;2023-01-26T00:45:45;101946.53;;;8.32;53.35
63731;BME280;49747;51.334;6.830;2023-01-26T00:48:12;101940.50;;;8.29;53.51
63731;BME280;49747;51.334;6.830;2023-01-26T00:50:38;101944.94;;;8.28;53.37
63731;BME280;49747;51.334;6.830;2023-01-26T00:53:05;101936.97;;;8.30;53.49
63731;BME280;49747;51.334;6.830;2023-01-26T00:55:32;101942.38;;;8.27;52.66
63731;BME280;49747;51.334;6.830;2023-01-26T00:58:04;101949.38;;;8.28;53.21
63731;BME280;49747;51.334;6.830;2023-01-26T01:00:32;101936.16;;;8.28;54.16
63731;BME280;49747;51.334;6.830;2023-01-26T01:02:59;101941.38;;;8.29;54.20
63731;BME280;49747;51.334;6.830;2023-01-26T01:05:28;101947.59;;;8.28;53.67
63731;BME280;49747;51.334;6.830;2023-01-26T01:07:55;101936.88;;;8.31;53.85
63731;BME280;49747;51.334;6.830;2023-01-26T01:10:21;101941.19;;;8.34;54.37
63731;BME280;49747;51.334;6.830;2023-01-26T01:12:48;101929.56;;;8.38;54.54
63731;BME280;49747;51.334;6.830;2023-01-26T01:15:15;101935.00;;;8.33;53.77
63731;BME280;49747;51.334;6.830;2023-01-26T01:17:41;101934.44;;;8.27;53.68
63731;BME280;49747;51.334;6.830;2023-01-26T01:20:09;101930.66;;;8.32;54.98
63731;BME280;49747;51.334;6.830;2023-01-26T01:22:39;101922.72;;;8.32;54.43
63731;BME280;49747;51.334;6.830;2023-01-26T01:25:06;101918.28;;;8.33;54.90
63731;BME280;49747;51.334;6.830;2023-01-26T01:27:33;101919.84;;;8.38;55.03
63731;BME280;49747;51.334;6.830;2023-01-26T01:29:59;101912.81;;;8.37;55.01
63731;BME280;49747;51.334;6.830;2023-01-26T01:32:25;101906.44;;;8.42;54.93
63731;BME280;49747;51.334;6.830;2023-01-26T01:34:52;101907.38;;;8.41;54.70
63731;BME280;49747;51.334;6.830;2023-01-26T01:37:20;101917.91;;;8.42;54.88
63731;BME280;49747;51.334;6.830;2023-01-26T01:39:47;101916.13;;;8.43;55.50
63731;BME280;49747;51.334;6.830;2023-01-26T01:42:14;101914.13;;;8.48;55.54
63731;BME280;49747;51.334;6.830;2023-01-26T01:44:41;101914.97;;;8.48;55.08
63731;BME280;49747;51.334;6.830;2023-01-26T01:47:21;101923.75;;;8.50;55.48
63731;BME280;49747;51.334;6.830;2023-01-26T01:49:53;101917.50;;;8.51;55.61
63731;BME280;49747;51.334;6.830;2023-01-26T01:52:24;101915.63;;;8.53;55.80
63731;BME280;49747;51.334;6.830;2023-01-26T01:54:58;101920.78;;;8.56;55.45
63731;BME280;49747;51.334;6.830;2023-01-26T01:57:34;101919.81;;;8.59;56.04
63731;BME280;49747;51.334;6.830;2023-01-26T02:00:12;101916.09;;;8.63;55.48
63731;BME280;49747;51.334;6.830;2023-01-26T02:02:40;101917.81;;;8.64;56.34
63731;BME280;49747;51.334;6.830;2023-01-26T02:05:21;101911.44;;;8.68;55.92
63731;BME280;49747;51.334;6.830;2023-01-26T02:07:50;101906.22;;;8.67;55.45
63731;BME280;49747;51.334;6.830;2023-01-26T02:10:18;101905.19;;;8.69;55.04
63731;BME280;49747;51.334;6.830;2023-01-26T02:12:48;101893.69;;;8.70;55.62
63731;BME280;49747;51.334;6.830;2023-01-26T02:15:16;101893.63;;;8.72;56.00
63731;BME280;49747;51.334;6.830;2023-01-26T02:17:43;101893.47;;;8.75;55.81
63731;BME280;49747;51.334;6.830;2023-01-26T02:20:40;101892.47;;;8.77;55.54
63731;BME280;49747;51.334;6.830;2023-01-26T02:23:19;101890.63;;;8.79;55.85
63731;BME280;49747;51.334;6.830;2023-01-26T02:28:16;101882.53;;;8.82;55.91
63731;BME280;49747;51.334;6.830;2023-01-26T02:30:43;101886.81;;;8.85;56.17
63731;BME280;49747;51.334;6.830;2023-01-26T02:33:20;101885.91;;;8.86;55.79
63731;BME280;49747;51.334;6.830;2023-01-26T02:35:47;101880.53;;;8.87;56.15
63731;BME280;49747;51.334;6.830;2023-01-26T02:38:15;101873.56;;;8.85;56.29
63731;BME280;49747;51.334;6.830;2023-01-26T02:40:47;101874.22;;;8.90;56.08
63731;BME280;49747;51.334;6.830;2023-01-26T02:43:17;101879.53;;;8.90;56.36
63731;BME280;49747;51.334;6.830;2023-01-26T02:45:44;101876.94;;;8.88;56.28
63731;BME280;49747;51.334;6.830;2023-01-26T02:48:10;101873.22;;;8.93;56.15
63731;BME280;49747;51.334;6.830;2023-01-26T02:50:39;101873.16;;;8.94;56.00
63731;BME280;49747;51.334;6.830;2023-01-26T02:53:05;101864.34;;;8.94;55.54
63731;BME280;49747;51.334;6.830;2023-01-26T02:55:31;101858.88;;;8.97;56.05
63731;BME280;49747;51.334;6.830;2023-01-26T02:58:01;101858.03;;;8.96;56.47
63731;BME280;49747;51.334;6.830;2023-01-26T03:00:33;101857.09;;;8.97;56.08
63731;BME280;49747;51.334;6.830;2023-01-26T03:03:11;101859.72;;;8.97;56.29
63731;BME280;49747;51.334;6.830;2023-01-26T03:05:39;101867.69;;;8.97;56.40
63731;BME280;49747;51.334;6.830;2023-01-26T03:08:05;101869.34;;;9.00;56.35
63731;BME280;49747;51.334;6.830;2023-01-26T03:10:35;101859.81;;;8.96;56.06
63731;BME280;49747;51.334;6.830;2023-01-26T03:13:02;101870.13;;;9.02;56.84
63731;BME280;49747;51.334;6.830;2023-01-26T03:15:31;101856.09;;;9.00;57.31
63731;BME280;49747;51.334;6.830;2023-01-26T03:18:12;101855.94;;;9.03;56.53
63731;BME280;49747;51.334;6.830;2023-01-26T03:21:03;101845.34;;;9.03;56.32
63731;BME280;49747;51.334;6.830;2023-01-26T03:23:48;101837.53;;;9.00;56.42
63731;BME280;49747;51.334;6.830;2023-01-26T03:26:35;101844.31;;;9.05;56.23
63731;BME280;49747;51.334;6.830;2023-01-26T03:29:20;101845.22;;;9.06;56.39
63731;BME280;49747;51.334;6.830;2023-01-26T03:31:47;101845.25;;;9.04;57.33
63731;BME280;49747;51.334;6.830;2023-01-26T03:34:13;101849.63;;;9.05;56.77
63731;BME280;49747;51.334;6.830;2023-01-26T03:36:41;101863.75;;;9.06;57.27
63731;BME280;49747;51.334;6.830;2023-01-26T03:39:12;101855.81;;;9.06;56.74
63731;BME280;49747;51.334;6.830;2023-01-26T03:41:59;101855.81;;;9.06;57.02
63731;BME280;49747;51.334;6.830;2023-01-26T03:44:45;101841.75;;;9.04;56.50
63731;BME280;49747;51.334;6.830;2023-01-26T03:47:31;101859.22;;;9.08;56.93
63731;BME280;49747;51.334;6.830;2023-01-26T03:50:17;101853.84;;;9.09;57.23
63731;BME280;49747;51.334;6.830;2023-01-26T03:53:15;101852.94;;;9.10;57.19
63731;BME280;49747;51.334;6.830;2023-01-26T03:56:01;101852.94;;;9.10;56.58
63731;BME280;49747;51.334;6.830;2023-01-26T04:01:18;101851.13;;;9.11;56.52
63731;BME280;49747;51.334;6.830;2023-01-26T04:03:49;101845.84;;;9.11;56.52
63731;BME280;49747;51.334;6.830;2023-01-26T04:06:39;101846.69;;;9.11;56.64
63731;BME280;49747;51.334;6.830;2023-01-26T04:09:24;101852.84;;;9.12;57.30
63731;BME280;49747;51.334;6.830;2023-01-26T04:11:51;101839.59;;;9.12;56.76
63731;BME280;49747;51.334;6.830;2023-01-26T04:14:18;101843.03;;;9.14;56.71
63731;BME280;49747;51.334;6.830;2023-01-26T04:17:20;101846.69;;;9.11;56.88
63731;BME280;49747;51.334;6.830;2023-01-26T04:20:06;101852.75;;;9.13;56.65
63731;BME280;49747;51.334;6.830;2023-01-26T04:22:52;101849.25;;;9.13;56.44
63731;BME280;49747;51.334;6.830;2023-01-26T04:25:21;101840.44;;;9.12;56.38
63731;BME280;49747;51.334;6.830;2023-01-26T04:27:48;101838.66;;;9.13;56.70
63731;BME280;49747;51.334;6.830;2023-01-26T04:30:16;101834.19;;;9.13;56.96
63731;BME280;49747;51.334;6.830;2023-01-26T04:32:44;101834.19;;;9.13;56.63
63731;BME280;49747;51.334;6.830;2023-01-26T04:35:12;101837.75;;;9.14;56.87
63731;BME280;49747;51.334;6.830;2023-01-26T04:37:39;101834.16;;;9.15;57.21
63731;BME280;49747;51.334;6.830;2023-01-26T04:40:06;101831.50;;;9.15;56.99
63731;BME280;49747;51.334;6.830;2023-01-26T04:42:35;101835.09;;;9.14;57.41
63731;BME280;49747;51.334;6.830;2023-01-26T04:45:03;101837.75;;;9.14;57.46
63731;BME280;49747;51.334;6.830;2023-01-26T04:47:30;101837.75;;;9.14;56.86
63731;BME280;49747;51.334;6.830;2023-01-26T04:49:57;101834.19;;;9.13;56.59
63731;BME280;49747;51.334;6.830;2023-01-26T04:52:23;101834.28;;;9.12;56.58
63731;BME280;49747;51.334;6.830;2023-01-26T04:54:50;101831.50;;;9.15;56.42
63731;BME280;49747;51.334;6.830;2023-01-26T04:57:16;101831.50;;;9.15;56.02
63731;BME280;49747;51.334;6.830;2023-01-26T04:59:48;101831.50;;;9.15;56.37
63731;BME280;49747;51.334;6.830;2023-01-26T05:02:16;101836.72;;;9.17;56.76
63731;BME280;49747;51.334;6.830;2023-01-26T05:04:43;101835.84;;;9.16;57.07
63731;BME280;49747;51.334;6.830;2023-01-26T05:07:09;101836.81;;;9.15;57.72
63731;BME280;49747;51.334;6.830;2023-01-26T05:09:37;101831.50;;;9.15;57.23
63731;BME280;49747;51.334;6.830;2023-01-26T05:12:29;101839.31;;;9.18;56.88
63731;BME280;49747;51.334;6.830;2023-01-26T05:15:17;101837.56;;;9.17;57.33
63731;BME280;49747;51.334;6.830;2023-01-26T05:18:01;101832.25;;;9.17;58.23
63731;BME280;49747;51.334;6.830;2023-01-26T05:20:51;101833.22;;;9.16;57.44
63731;BME280;49747;51.334;6.830;2023-01-26T05:23:32;101832.25;;;9.17;56.88
63731;BME280;49747;51.334;6.830;2023-01-26T05:26:21;101838.44;;;9.18;56.91
63731;BME280;49747;51.334;6.830;2023-01-26T05:28:54;101844.59;;;9.18;57.04
63731;BME280;49747;51.334;6.830;2023-01-26T05:31:21;101840.22;;;9.17;57.00
63731;BME280;49747;51.334;6.830;2023-01-26T05:33:48;101834.00;;;9.18;57.15
63731;BME280;49747;51.334;6.830;2023-01-26T05:36:22;101829.63;;;9.17;56.81
63731;BME280;49747;51.334;6.830;2023-01-26T05:38:49;101837.56;;;9.17;57.11
63731;BME280;49747;51.334;6.830;2023-01-26T05:41:19;101840.16;;;9.19;56.79
63731;BME280;49747;51.334;6.830;2023-01-26T05:43:58;101837.50;;;9.19;57.28
63731;BME280;49747;51.334;6.830;2023-01-26T05:46:33;101844.53;;;9.20;56.94
63731;BME280;49747;51.334;6.830;2023-01-26T05:49:01;101849.75;;;9.21;57.15
63731;BME280;49747;51.334;6.830;2023-01-26T05:51:28;101847.03;;;9.23;57.04
63731;BME280;49747;51.334;6.830;2023-01-26T05:53:54;101838.22;;;9.22;57.27
63731;BME280;49747;51.334;6.830;2023-01-26T05:56:21;101846.19;;;9.22;57.40
63731;BME280;49747;51.334;6.830;2023-01-26T05:58:53;101853.19;;;9.23;56.86
63731;BME280;49747;51.334;6.830;2023-01-26T06:01:19;101851.41;;;9.24;56.97
63731;BME280;49747;51.334;6.830;2023-01-26T06:03:53;101854.84;;;9.26;57.21
63731;BME280;49747;51.334;6.830;2023-01-26T06:06:20;101854.84;;;9.26;57.18
63731;BME280;49747;51.334;6.830;2023-01-26T06:08:51;101854.75;;;9.27;57.05
63731;BME280;49747;51.334;6.830;2023-01-26T06:11:30;101847.56;;;9.29;57.23
63731;BME280;49747;51.334;6.830;2023-01-26T06:14:26;101850.22;;;9.29;56.70
63731;BME280;49747;51.334;6.830;2023-01-26T06:16:53;101839.56;;;9.31;56.97
63731;BME280;49747;51.334;6.830;2023-01-26T06:19:22;101843.84;;;9.33;57.04
63731;BME280;49747;51.334;6.830;2023-01-26T06:21:54;101841.28;;;9.32;56.56
63731;BME280;49747;51.334;6.830;2023-01-26T06:24:21;101850.78;;;9.36;56.89
63731;BME280;49747;51.334;6.830;2023-01-26T06:26:50;101843.69;;;9.36;56.53
63731;BME280;49747;51.334;6.830;2023-01-26T06:29:17;101846.28;;;9.38;57.94
63731;BME280;49747;51.334;6.830;2023-01-26T06:31:44;101839.09;;;9.40;56.69
63731;BME280;49747;51.334;6.830;2023-01-26T06:34:11;101839.94;;;9.41;56.79
63731;BME280;49747;51.334;6.830;2023-01-26T06:36:39;101836.38;;;9.42;57.09
63731;BME280;49747;51.334;6.830;2023-01-26T06:39:10;101838.88;;;9.45;56.76
63731;BME280;49747;51.334;6.830;2023-01-26T06:41:38;101846.69;;;9.48;56.69
63731;BME280;49747;51.334;6.830;2023-01-26T06:44:05;101837.06;;;9.45;56.80
63731;BME280;49747;51.334;6.830;2023-01-26T06:46:31;101847.47;;;9.50;57.12
63731;BME280;49747;51.334;6.830;2023-01-26T06:49:01;101850.97;;;9.50;56.88
63731;BME280;49747;51.334;6.830;2023-01-26T06:54:13;101855.19;;;9.54;57.06
63731;BME280;49747;51.334;6.830;2023-01-26T06:56:58;101857.66;;;9.57;56.48
63731;BME280;49747;51.334;6.830;2023-01-26T06:59:47;101856.75;;;9.58;57.44
63731;BME280;49747;51.334;6.830;2023-01-26T07:02:29;101860.19;;;9.60;56.88
63731;BME280;49747;51.334;6.830;2023-01-26T07:04:56;101856.81;;;9.57;56.41
63731;BME280;49747;51.334;6.830;2023-01-26T07:07:22;101863.53;;;9.64;57.02
63731;BME280;49747;51.334;6.830;2023-01-26T07:09:49;101858.31;;;9.62;57.18
63731;BME280;49747;51.334;6.830;2023-01-26T07:12:15;101858.38;;;9.61;56.62
63731;BME280;49747;51.334;6.830;2023-01-26T07:14:41;101859.94;;;9.65;56.83
63731;BME280;49747;51.334;6.830;2023-01-26T07:17:08;101856.28;;;9.68;56.80
63731;BME280;49747;51.334;6.830;2023-01-26T07:19:34;101852.63;;;9.70;57.01
63731;BME280;49747;51.334;6.830;2023-01-26T07:22:02;101846.53;;;9.68;56.85
63731;BME280;49747;51.334;6.830;2023-01-26T07:24:28;101858.72;;;9.72;57.00
63731;BME280;49747;51.334;6.830;2023-01-26T07:26:55;101849.97;;;9.70;56.88
63731;BME280;49747;51.334;6.830;2023-01-26T07:29:22;101855.91;;;9.75;56.92
63731;BME280;49747;51.334;6.830;2023-01-26T07:31:48;101851.34;;;9.77;56.98
63731;BME280;49747;51.334;6.830;2023-01-26T07:34:15;101855.75;;;9.78;56.89
63731;BME280;49747;51.334;6.830;2023-01-26T07:36:42;101858.25;;;9.81;57.10
63731;BME280;49747;51.334;6.830;2023-01-26T07:39:09;101856.47;;;9.82;57.47
63731;BME280;49747;51.334;6.830;2023-01-26T07:41:36;101863.47;;;9.83;56.82
63731;BME280;49747;51.334;6.830;2023-01-26T07:44:15;101859.03;;;9.83;56.69
63731;BME280;49747;51.334;6.830;2023-01-26T07:46:41;101864.19;;;9.86;57.28
63731;BME280;49747;51.334;6.830;2023-01-26T07:49:10;101867.78;;;9.85;57.50
63731;BME280;49747;51.334;6.830;2023-01-26T07:51:37;101867.69;;;9.87;57.33
63731;BME280;49747;51.334;6.830;2023-01-26T07:54:05;101851.91;;;9.84;57.45
63731;BME280;49747;51.334;6.830;2023-01-26T07:56:31;101857.84;;;9.89;57.43
63731;BME280;49747;51.334;6.830;2023-01-26T07:58:58;101863.09;;;9.91;56.67
63731;BME280;49747;51.334;6.830;2023-01-26T08:01:29;101862.25;;;9.90;57.06
63731;BME280;49747;51.334;6.830;2023-01-26T08:03:55;101853.47;;;9.88;57.16
63731;BME280;49747;51.334;6.830;2023-01-26T08:06:22;101864.72;;;9.93;57.23
63731;BME280;49747;51.334;6.830;2023-01-26T08:08:48;101862.06;;;9.93;58.02
63731;BME280;49747;51.334;6.830;2023-01-26T08:11:19;101860.09;;;9.97;56.98
63731;BME280;49747;51.334;6.830;2023-01-26T08:13:48;101862.75;;;9.97;57.04
63731;BME280;49747;51.334;6.830;2023-01-26T08:16:14;101860.09;;;9.97;57.36
63731;BME280;49747;51.334;6.830;2023-01-26T08:18:42;101853.19;;;9.94;57.29
63731;BME280;49747;51.334;6.830;2023-01-26T08:21:09;101866.22;;;9.99;57.83
63731;BME280;49747;51.334;6.830;2023-01-26T08:23:36;101874.94;;;10.01;57.89
63731;BME280;49747;51.334;6.830;2023-01-26T08:26:05;101877.59;;;10.01;57.63
63731;BME280;49747;51.334;6.830;2023-01-26T08:28:31;101878.38;;;10.03;57.33
63731;BME280;49747;51.334;6.830;2023-01-26T08:31:24;101877.44;;;10.04;57.67
63731;BME280;49747;51.334;6.830;2023-01-26T08:33:51;101874.72;;;10.05;58.02
63731;BME280;49747;51.334;6.830;2023-01-26T08:36:18;101883.53;;;10.06;57.40
63731;BME280;49747;51.334;6.830;2023-01-26T08:38:47;101877.28;;;10.07;57.88
63731;BME280;49747;51.334;6.830;2023-01-26T08:41:14;101874.19;;;11.14;100.00
63731;BME280;49747;51.334;6.830;2023-01-26T08:43:41;101868.50;;;11.20;69.17
63731;BME280;49747;51.334;6.830;2023-01-26T08:46:08;101882.94;;;9.11;58.84
63731;BME280;49747;51.334;6.830;2023-01-26T08:48:35;101885.50;;;8.35;61.16
63731;BME280;49747;51.334;6.830;2023-01-26T08:51:04;101886.91;;;7.83;62.99
63731;BME280;49747;51.334;6.830;2023-01-26T08:53:32;101885.69;;;7.27;64.50
63731;BME280;49747;51.334;6.830;2023-01-26T08:56:07;101899.03;;;7.01;66.26
63731;BME280;49747;51.334;6.830;2023-01-26T08:58:34;101901.97;;;6.70;67.11
63731;BME280;49747;51.334;6.830;2023-01-26T09:01:09;101889.88;;;6.40;68.44
63731;BME280;49747;51.334;6.830;2023-01-26T09:03:36;101911.00;;;6.15;68.89
63731;BME280;49747;51.334;6.830;2023-01-26T09:06:06;101902.91;;;5.95;70.16
63731;BME280;49747;51.334;6.830;2023-01-26T09:08:33;101892.00;;;5.79;70.81
63731;BME280;49747;51.334;6.830;2023-01-26T09:11:00;101886.91;;;5.73;71.17
63731;BME280;49747;51.334;6.830;2023-01-26T09:13:27;101905.38;;;5.73;71.60
63731;BME280;49747;51.334;6.830;2023-01-26T09:15:53;101907.69;;;5.56;72.07
63731;BME280;49747;51.334;6.830;2023-01-26T09:18:20;101887.09;;;5.40;72.32
63731;BME280;49747;51.334;6.830;2023-01-26T09:20:46;101917.78;;;5.43;72.90
63731;BME280;49747;51.334;6.830;2023-01-26T09:23:13;101909.19;;;5.36;73.04
63731;BME280;49747;51.334;6.830;2023-01-26T09:25:42;101920.41;;;5.43;73.95
63731;BME280;49747;51.334;6.830;2023-01-26T09:28:08;101922.16;;;5.42;74.39
63731;BME280;49747;51.334;6.830;2023-01-26T09:30:35;101913.78;;;5.30;74.69
63731;BME280;49747;51.334;6.830;2023-01-26T09:33:03;101926.34;;;5.22;75.53
63731;BME280;49747;51.334;6.830;2023-01-26T09:35:30;101915.81;;;5.22;75.72
63731;BME280;49747;51.334;6.830;2023-01-26T09:37:56;101930.19;;;5.11;75.99
63731;BME280;49747;51.334;6.830;2023-01-26T09:43:41;101925.31;;;5.27;76.25
63731;BME280;49747;51.334;6.830;2023-01-26T09:46:17;101915.66;;;5.26;76.52
63731;BME280;49747;51.334;6.830;2023-01-26T09:49:05;101921.94;;;5.22;76.87
63731;BME280;49747;51.334;6.830;2023-01-26T09:51:38;101919.19;;;5.27;76.67
63731;BME280;49747;51.334;6.830;2023-01-26T09:54:24;101919.22;;;5.25;76.81
63731;BME280;49747;51.334;6.830;2023-01-26T09:56:53;101915.88;;;5.18;76.73
63731;BME280;49747;51.334;6.830;2023-01-26T10:01:56;101909.25;;;5.35;76.84
63731;BME280;49747;51.334;6.830;2023-01-26T10:04:29;101909.28;;;5.33;76.55
63731;BME280;49747;51.334;6.830;2023-01-26T10:07:08;101910.72;;;5.43;76.48
63731;BME280;49747;51.334;6.830;2023-01-26T10:09:46;101900.81;;;5.24;76.93
63731;BME280;49747;51.334;6.830;2023-01-26T10:12:34;101909.53;;;5.26;77.30
63731;BME280;49747;51.334;6.830;2023-01-26T10:15:22;101911.28;;;5.27;78.04
63731;BME280;49747;51.334;6.830;2023-01-26T10:17:53;101908.53;;;5.30;78.13
63731;BME280;49747;51.334;6.830;2023-01-26T10:20:29;101899.91;;;5.25;77.75
63731;BME280;49747;51.334;6.830;2023-01-26T10:23:08;101907.00;;;5.23;77.64
63731;BME280;49747;51.334;6.830;2023-01-26T10:25:40;101906.88;;;5.27;78.17
63731;BME280;49747;51.334;6.830;2023-01-26T10:28:16;101905.22;;;5.23;78.13
63731;BME280;49747;51.334;6.830;2023-01-26T10:30:46;101885.16;;;5.19;78.54
63731;BME280;49747;51.334;6.830;2023-01-26T10:33:18;101886.03;;;5.19;78.46
63731;BME280;49747;51.334;6.830;2023-01-26T10:35:45;101897.50;;;5.17;79.23
63731;BME280;49747;51.334;6.830;2023-01-26T10:38:47;101884.41;;;5.15;78.91
63731;BME280;49747;51.334;6.830;2023-01-26T10:44:01;101888.03;;;5.11;78.60
63731;BME280;49747;51.334;6.830;2023-01-26T10:46:38;101886.06;;;5.18;79.17
63731;BME280;49747;51.334;6.830;2023-01-26T10:51:36;101867.34;;;5.27;78.22
63731;BME280;49747;51.334;6.830;2023-01-26T10:59:54;101878.19;;;5.44;78.89
63731;BME280;49747;51.334;6.830;2023-01-26T11:02:27;101877.28;;;5.46;78.22
63731;BME280;49747;51.334;6.830;2023-01-26T11:07:36;101876.38;;;5.47;78.34
63731;BME280;49747;51.334;6.830;2023-01-26T11:10:20;101870.19;;;5.48;79.38
63731;BME280;49747;51.334;6.830;2023-01-26T11:12:49;101868.31;;;5.51;77.91
63731;BME280;49747;51.334;6.830;2023-01-26T11:15:23;101865.78;;;5.48;79.10
63731;BME280;49747;51.334;6.830;2023-01-26T11:17:59;101875.09;;;5.32;78.65
63731;BME280;49747;51.334;6.830;2023-01-26T11:23:27;101869.81;;;5.32;79.75
63731;BME280;49747;51.334;6.830;2023-01-26T11:26:02;101867.09;;;5.35;79.48
63731;BME280;49747;51.334;6.830;2023-01-26T11:31:35;101870.78;;;5.29;79.62
63731;BME280;49747;51.334;6.830;2023-01-26T11:42:37;101869.34;;;5.19;81.65
63731;BME280;49747;51.334;6.830;2023-01-26T11:45:20;101877.25;;;5.19;81.68
63731;BME280;49747;51.334;6.830;2023-01-26T11:51:06;101862.06;;;5.27;81.91
63731;BME280;49747;51.334;6.830;2023-01-26T11:56:47;101849.50;;;5.35;81.41
63731;BME280;49747;51.334;6.830;2023-01-26T11:59:26;101849.50;;;5.35;81.49
63731;BME280;49747;51.334;6.830;2023-01-26T12:02:03;101844.03;;;5.41;81.61
63731;BME280;49747;51.334;6.830;2023-01-26T12:04:36;101832.97;;;5.30;81.78
63731;BME280;49747;51.334;6.830;2023-01-26T12:07:16;101836.44;;;5.32;82.45
63731;BME280;49747;51.334;6.830;2023-01-26T12:09:48;101833.53;;;5.40;82.00
63731;BME280;49747;51.334;6.830;2023-01-26T12:12:23;101837.34;;;5.31;81.21
63731;BME280;49747;51.334;6.830;2023-01-26T12:14:58;101837.69;;;5.21;82.63
63731;BME280;49747;51.334;6.830;2023-01-26T12:17:59;101837.75;;;5.19;82.73
63731;BME280;49747;51.334;6.830;2023-01-26T12:23:26;101833.56;;;5.12;83.20
63731;BME280;49747;51.334;6.830;2023-01-26T12:25:59;101821.97;;;5.17;82.71
63731;BME280;49747;51.334;6.830;2023-01-26T12:28:41;101820.19;;;5.18;82.71
63731;BME280;49747;51.334;6.830;2023-01-26T12:31:20;101814.91;;;5.18;82.93
63731;BME280;49747;51.334;6.830;2023-01-26T12:33:52;101809.56;;;5.21;83.75
63731;BME280;49747;51.334;6.830;2023-01-26T12:36:57;101809.56;;;5.21;83.38
63731;BME280;49747;51.334;6.830;2023-01-26T12:40:07;101797.97;;;5.27;83.36
63731;BME280;49747;51.334;6.830;2023-01-26T12:42:46;101801.34;;;5.30;83.07
63731;BME280;49747;51.334;6.830;2023-01-26T12:45:19;101795.53;;;5.21;82.89
63731;BME280;49747;51.334;6.830;2023-01-26T12:47:54;101775.53;;;5.15;83.21
63731;BME280;49747;51.334;6.830;2023-01-26T12:50:31;101788.22;;;5.29;83.13
63731;BME280;49747;51.334;6.830;2023-01-26T12:53:13;101780.50;;;5.24;83.38
63731;BME280;49747;51.334;6.830;2023-01-26T12:56:29;101789.41;;;5.20;84.02
63731;BME280;49747;51.334;6.830;2023-01-26T12:58:47;101787.31;;;5.30;83.31
63731;BME280;49747;51.334;6.830;2023-01-26T13:01:17;101787.56;;;5.22;83.44
63731;BME280;49747;51.334;6.830;2023-01-26T13:03:56;101771.88;;;5.19;83.70
63731;BME280;49747;51.334;6.830;2023-01-26T13:06:27;101785.50;;;5.32;83.83
63731;BME280;49747;51.334;6.830;2023-01-26T13:11:50;101786.00;;;5.16;84.96
63731;BME280;49747;51.334;6.830;2023-01-26T13:14:34;101792.81;;;5.24;84.61
63731;BME280;49747;51.334;6.830;2023-01-26T13:33:09;101792.75;;;5.25;85.27
63731;BME280;49747;51.334;6.830;2023-01-26T13:35:36;101787.69;;;5.19;85.51
63731;BME280;49747;51.334;6.830;2023-01-26T13:38:17;101787.56;;;5.22;85.56
63731;BME280;49747;51.334;6.830;2023-01-26T13:40:46;101786.00;;;5.16;86.11
63731;BME280;49747;51.334;6.830;2023-01-26T13:46:53;101778.78;;;5.23;86.04
63731;BME280;49747;51.334;6.830;2023-01-26T13:48:58;101767.06;;;5.32;85.56
63731;BME280;49747;51.334;6.830;2023-01-26T13:51:27;101775.75;;;5.34;85.61
63731;BME280;49747;51.334;6.830;2023-01-26T13:56:35;101778.13;;;5.41;85.30
63731;BME280;49747;51.334;6.830;2023-01-26T13:59:08;101768.88;;;5.30;85.21
63731;BME280;49747;51.334;6.830;2023-01-26T14:01:43;101765.06;;;5.38;85.49
63731;BME280;49747;51.334;6.830;2023-01-26T14:04:19;101778.09;;;5.43;84.85
63731;BME280;49747;51.334;6.830;2023-01-26T14:09:41;101783.78;;;5.31;86.26
63731;BME280;49747;51.334;6.830;2023-01-26T14:12:16;101769.44;;;5.39;86.13
63731;BME280;49747;51.334;6.830;2023-01-26T14:14:46;101766.91;;;5.36;86.61
63731;BME280;49747;51.334;6.830;2023-01-26T14:17:25;101772.84;;;5.43;85.64
63731;BME280;49747;51.334;6.830;2023-01-26T14:19:52;101766.63;;;5.44;85.53
63731;BME280;49747;51.334;6.830;2023-01-26T14:22:18;101769.38;;;5.41;86.07
63731;BME280;49747;51.334;6.830;2023-01-26T14:24:49;101764.00;;;5.44;85.95
63731;BME280;49747;51.334;6.830;2023-01-26T14:29:55;101769.81;;;5.54;85.96
63731;BME280;49747;51.334;6.830;2023-01-26T14:32:22;101754.22;;;5.48;86.24
63731;BME280;49747;51.334;6.830;2023-01-26T14:34:56;101763.34;;;5.37;86.57
63731;BME280;49747;51.334;6.830;2023-01-26T14:37:23;101774.53;;;5.44;87.00
63731;BME280;49747;51.334;6.830;2023-01-26T14:40:09;101775.41;;;5.44;86.89
63731;BME280;49747;51.334;6.830;2023-01-26T14:42:41;101777.03;;;5.49;87.20
63731;BME280;49747;51.334;6.830;2023-01-26T14:45:12;101763.09;;;5.45;87.46
63731;BME280;49747;51.334;6.830;2023-01-26T14:47:39;101763.50;;;5.58;87.16